Time;durP1;ratioP1;P1;durP2;ratioP2;P2;SDS_P1;SDS_P2;PMS_P1;PMS_P2;Temp;Humidity;BMP_temperature;BMP_pressure;BME280_temperature;BME280_humidity;BME280_pressure;Samples;Min_cycle;Max_cycle;Signal;HPM_P1;HPM_P2
2023/12/14 00:01:41;;;;;;;17.40;10.77;;;1.00;99.90;0.00;99652;;;;584926;243;24179;-89
2023/12/14 00:04:04;;;;;;;14.80;10.37;;;0.90;99.90;-0.10;99652;;;;581808;243;24063;-88
2023/12/14 00:06:30;;;;;;;21.63;11.13;;;1.00;99.90;-0.10;99658;;;;591446;243;24077;-89
2023/12/14 00:09:00;;;;;;;15.20;10.70;;;0.90;99.90;0.00;99660;;;;582374;243;24134;-89
2023/12/14 00:11:31;;;;;;;8.73;6.68;;;1.00;99.90;-0.10;99655;;;;576803;243;35204;-88
2023/12/14 00:14:00;;;;;;;6.63;4.00;;;1.00;99.90;0.00;99658;;;;592768;241;24110;-88
2023/12/14 00:16:28;;;;;;;8.03;4.27;;;1.00;99.90;0.00;99663;;;;583026;243;24057;-87
2023/12/14 00:19:04;;;;;;;11.40;7.37;;;1.00;99.90;-0.10;99668;;;;570148;247;24093;-88
2023/12/14 00:21:40;;;;;;;11.93;8.10;;;1.00;99.90;0.00;99666;;;;584090;242;24165;-88
2023/12/14 00:23:58;;;;;;;13.03;7.40;;;1.00;99.90;0.00;99661;;;;592310;242;24076;-86
2023/12/14 00:26:33;;;;;;;15.67;9.67;;;1.00;99.90;-0.10;99665;;;;592268;242;24069;-88
2023/12/14 00:28:57;;;;;;;14.90;9.20;;;0.90;99.90;-0.10;99671;;;;583438;242;24077;-89
2023/12/14 00:31:25;;;;;;;13.33;7.73;;;1.00;99.90;-0.10;99671;;;;583038;242;24062;-89
2023/12/14 00:33:53;;;;;;;11.30;7.23;;;0.90;99.90;-0.10;99679;;;;591069;242;24187;-88
2023/12/14 00:36:23;;;;;;;9.83;7.00;;;0.90;99.90;-0.10;99688;;;;590983;242;24095;-89
2023/12/14 00:38:55;;;;;;;10.33;7.33;;;0.90;99.90;-0.10;99685;;;;590812;242;24093;-89
2023/12/14 00:41:24;;;;;;;19.83;10.90;;;0.90;99.90;-0.10;99677;;;;571523;247;24158;-89
2023/12/14 00:43:50;;;;;;;14.23;9.40;;;0.90;99.90;-0.10;99701;;;;582085;241;24117;-87
2023/12/14 00:46:22;;;;;;;12.87;8.13;;;0.90;99.90;-0.10;99705;;;;570309;246;24088;-89
2023/12/14 00:48:50;;;;;;;20.17;11.17;;;0.90;99.90;-0.10;99700;;;;584131;242;24065;-89
2023/12/14 00:51:17;;;;;;;14.87;9.53;;;0.90;99.90;-0.10;99711;;;;581845;247;24089;-88
2023/12/14 00:53:45;;;;;;;10.87;7.70;;;0.90;99.90;-0.10;99713;;;;591984;243;24100;-89
2023/12/14 00:56:12;;;;;;;20.03;11.43;;;0.90;99.90;-0.10;99714;;;;569555;247;24165;-88
2023/12/14 00:58:40;;;;;;;12.93;8.63;;;0.90;99.90;-0.10;99714;;;;583017;243;24090;-88
2023/12/14 01:01:09;;;;;;;13.53;8.07;;;1.00;99.90;-0.10;99721;;;;569760;247;24101;-89
2023/12/14 01:03:38;;;;;;;15.80;10.47;;;1.00;99.90;0.00;99721;;;;582730;243;24070;-90
2023/12/14 01:06:07;;;;;;;10.53;7.27;;;1.00;99.90;0.00;99725;;;;582597;243;24047;-88
2023/12/14 01:08:37;;;;;;;12.67;8.67;;;1.00;99.90;0.00;99727;;;;589743;244;24099;-88
2023/12/14 01:11:07;;;;;;;13.67;9.50;;;1.10;99.90;0.00;99726;;;;582887;242;24053;-88
2023/12/14 01:13:39;;;;;;;10.27;7.23;;;1.10;99.90;0.10;99730;;;;583651;242;24068;-88
2023/12/14 01:16:04;;;;;;;11.40;7.33;;;1.10;99.90;0.10;99727;;;;591485;242;24078;-89
2023/12/14 01:18:32;;;;;;;12.70;8.27;;;1.10;99.90;0.10;99731;;;;583370;242;24095;-89
2023/12/14 01:21:01;;;;;;;10.73;7.27;;;1.20;99.90;0.20;99727;;;;591415;242;24122;-88
2023/12/14 01:23:29;;;;;;;12.63;7.93;;;1.20;99.90;0.20;99728;;;;591285;242;24137;-89
2023/12/14 01:25:57;;;;;;;12.97;8.23;;;1.20;99.90;0.10;99735;;;;590955;242;24082;-89
2023/12/14 01:28:25;;;;;;;8.10;6.00;;;1.20;99.90;0.20;99728;;;;591019;242;24066;-89
2023/12/14 01:30:57;;;;;;;16.40;8.37;;;1.20;99.90;0.20;99724;;;;591210;242;24073;-89
2023/12/14 01:33:26;;;;;;;10.27;6.17;;;1.20;99.90;0.20;99735;;;;582527;242;24053;-89
2023/12/14 01:35:50;;;;;;;7.37;5.37;;;1.20;99.90;0.20;99729;;;;582459;242;24107;-88
2023/12/14 01:38:18;;;;;;;6.72;6.00;;;1.30;99.90;0.20;99735;;;;585888;242;35202;-87
2023/12/14 01:40:55;;;;;;;10.80;3.63;;;1.30;99.90;0.20;99738;;;;583164;242;24057;-88
2023/12/14 01:43:14;;;;;;;10.03;3.43;;;1.30;99.90;0.30;99736;;;;579378;242;24084;-88
2023/12/14 01:45:42;;;;;;;4.10;3.13;;;1.40;99.90;0.30;99739;;;;591294;242;24081;-88
2023/12/14 01:48:10;;;;;;;9.53;3.30;;;1.40;99.90;0.30;99742;;;;591160;242;24126;-88
2023/12/14 01:50:38;;;;;;;9.00;4.27;;;1.40;99.90;0.30;99739;;;;591345;242;24042;-89
2023/12/14 01:53:09;;;;;;;4.67;2.63;;;1.40;99.90;0.40;99738;;;;583159;242;24090;-89
2023/12/14 01:55:34;;;;;;;12.50;5.73;;;1.50;99.90;0.40;99753;;;;582359;240;24091;-89
2023/12/14 01:58:05;;;;;;;5.77;3.47;;;1.50;99.90;0.40;99738;;;;584635;242;24086;-88
2023/12/14 02:00:44;;;;;;;8.70;4.43;;;1.50;99.90;0.40;99738;;;;591823;242;24098;-89
2023/12/14 02:03:12;;;;;;;7.63;4.87;;;1.50;99.90;0.40;99740;;;;583352;242;24076;-89
2023/12/14 02:05:37;;;;;;;9.80;5.70;;;1.50;99.90;0.40;99748;;;;592217;242;24061;-88
2023/12/14 02:08:05;;;;;;;6.03;5.00;;;1.50;99.90;0.40;99740;;;;583174;242;24054;-88
2023/12/14 02:10:33;;;;;;;4.03;3.33;;;1.50;99.90;0.50;99733;;;;591321;242;24097;-89
2023/12/14 02:13:07;;;;;;;8.87;5.10;;;1.50;99.90;0.50;99735;;;;591537;242;24110;-89
2023/12/14 02:15:32;;;;;;;5.70;4.00;;;1.60;99.90;0.50;99737;;;;583227;242;25118;-88
2023/12/14 02:18:01;;;;;;;6.07;4.50;;;1.60;99.90;0.50;99732;;;;581271;247;24136;-88
2023/12/14 02:20:29;;;;;;;5.33;3.77;;;1.60;99.90;0.50;99736;;;;591565;243;24116;-87
2023/12/14 02:23:03;;;;;;;7.10;4.10;;;1.60;99.90;0.60;99750;;;;569256;247;24062;-88
2023/12/14 02:25:30;;;;;;;5.20;4.17;;;1.60;99.90;0.60;99752;;;;577907;243;24096;-87
2023/12/14 02:27:59;;;;;;;6.10;4.67;;;1.60;99.90;0.60;99748;;;;580666;243;24118;-87
2023/12/14 02:30:26;;;;;;;5.13;4.33;;;1.60;99.90;0.60;99747;;;;583298;242;24098;-88
2023/12/14 02:32:51;;;;;;;6.47;4.53;;;1.60;99.90;0.60;99747;;;;592530;242;24050;-87
2023/12/14 02:35:19;;;;;;;6.23;3.87;;;1.70;99.90;0.60;99746;;;;591728;242;24158;-86
2023/12/14 02:37:51;;;;;;;8.17;5.03;;;1.70;99.90;0.60;99747;;;;591225;242;24061;-87
2023/12/14 02:40:15;;;;;;;13.57;5.20;;;1.70;99.90;0.60;99740;;;;583066;242;24104;-89
2023/12/14 02:42:43;;;;;;;6.37;4.63;;;1.70;99.90;0.60;99746;;;;583479;242;24109;-88
2023/12/14 02:45:14;;;;;;;14.87;5.47;;;1.70;99.90;0.70;99748;;;;591611;242;24158;-88
2023/12/14 02:47:42;;;;;;;7.70;4.40;;;1.80;99.90;0.70;99746;;;;582990;242;24115;-88
2023/12/14 02:50:11;;;;;;;7.07;3.77;;;1.80;99.90;0.70;99744;;;;592458;242;24121;-88
2023/12/14 02:52:35;;;;;;;6.03;3.50;;;1.70;99.90;0.70;99746;;;;591617;242;24078;-88
2023/12/14 02:55:06;;;;;;;8.10;4.63;;;1.80;99.90;0.70;99740;;;;591535;242;24079;-88
2023/12/14 02:57:31;;;;;;;4.27;3.07;;;1.80;99.90;0.80;99738;;;;582875;242;24109;-88
2023/12/14 03:00:03;;;;;;;3.20;1.90;;;1.80;99.90;0.80;99741;;;;580363;247;24092;-88
2023/12/14 03:02:28;;;;;;;6.37;2.97;;;1.80;99.90;0.80;99741;;;;577511;243;24083;-87
2023/12/14 03:04:59;;;;;;;6.85;3.37;;;1.90;99.90;0.90;99755;;;;584071;244;35177;-88
2023/12/14 03:07:24;;;;;;;3.97;3.27;;;1.90;99.90;0.90;99752;;;;577060;244;24086;-87
2023/12/14 03:09:52;;;;;;;5.77;3.23;;;1.90;99.90;0.90;99750;;;;584847;242;24104;-87
2023/12/14 03:12:20;;;;;;;4.77;2.67;;;1.90;99.90;0.90;99759;;;;573860;247;24084;-86
2023/12/14 03:14:49;;;;;;;5.53;2.77;;;;;0.90;99754;;;;573877;247;24100;-87
2023/12/14 03:17:20;;;;;;;9.50;4.85;;;2.00;99.90;0.90;99756;;;;568665;247;35289;-87
2023/12/14 03:19:48;;;;;;;7.07;3.63;;;2.00;99.90;0.90;99745;;;;576607;247;24130;-88
2023/12/14 03:22:16;;;;;;;6.57;3.53;;;2.00;99.90;0.90;99755;;;;576413;247;24139;-87
2023/12/14 03:24:41;;;;;;;7.03;2.83;;;2.00;99.90;0.90;99745;;;;572946;247;24103;-87
2023/12/14 03:27:10;;;;;;;7.80;3.40;;;2.00;99.90;1.00;99747;;;;572784;247;25140;-88
2023/12/14 03:29:38;;;;;;;19.40;3.37;;;2.00;99.90;1.00;99751;;;;572696;247;24153;-87
2023/12/14 03:32:10;;;;;;;8.33;2.77;;;2.00;99.90;1.00;99753;;;;583630;242;24048;-87
2023/12/14 03:34:37;;;;;;;5.20;2.77;;;2.10;99.90;1.10;99756;;;;580943;247;24182;-86
2023/12/14 03:37:02;;;;;;;4.33;2.10;;;2.10;99.90;1.10;99752;;;;584580;243;24111;-88
2023/12/14 03:39:30;;;;;;;3.53;1.80;;;2.10;99.90;1.10;99765;;;;569172;247;24101;-87
2023/12/14 03:42:03;;;;;;;2.10;1.90;;;2.10;99.90;1.10;99760;;;;582206;243;24105;-88
2023/12/14 03:44:27;;;;;;;2.50;2.13;;;2.10;99.90;1.10;99757;;;;581719;246;24116;-87
2023/12/14 03:46:57;;;;;;;3.07;1.63;;;2.10;99.90;1.10;99763;;;;581834;243;24114;-87
2023/12/14 03:49:23;;;;;;;4.73;2.90;;;2.10;99.90;1.10;99756;;;;568853;247;24093;-88
2023/12/14 03:51:52;;;;;;;2.47;1.90;;;2.20;99.90;1.10;99748;;;;582071;243;24164;-87
2023/12/14 03:54:20;;;;;;;3.37;2.67;;;2.10;99.90;1.10;99757;;;;570425;248;24159;-87
2023/12/14 03:56:48;;;;;;;2.43;1.73;;;2.20;99.90;1.20;99747;;;;570531;248;24074;-87
2023/12/14 03:59:16;;;;;;;4.57;1.87;;;2.20;99.90;1.20;99746;;;;570354;248;24091;-87
2023/12/14 04:01:47;;;;;;;2.93;2.07;;;2.20;99.90;1.20;99747;;;;578900;248;24134;-87
2023/12/14 04:04:18;;;;;;;7.77;3.97;;;2.20;99.90;1.20;99751;;;;569904;248;24131;-87
2023/12/14 04:06:49;;;;;;;4.50;2.73;;;2.20;99.90;1.20;99758;;;;570162;248;24096;-88
2023/12/14 04:09:18;;;;;;;6.07;3.17;;;2.20;99.90;1.20;99757;;;;569593;248;24130;-87
2023/12/14 04:11:42;;;;;;;3.20;2.57;;;2.20;99.90;1.30;99754;;;;569585;248;24134;-88
2023/12/14 04:14:13;;;;;;;8.87;4.20;;;2.30;99.90;1.30;99756;;;;570251;248;24135;-88
2023/12/14 04:16:44;;;;;;;4.43;2.13;;;2.30;99.90;1.30;99763;;;;569721;248;24134;-88
2023/12/14 04:19:14;;;;;;;6.97;2.80;;;2.30;99.90;1.30;99770;;;;566925;247;24081;-87
2023/12/14 04:21:40;;;;;;;3.93;2.70;;;2.30;99.90;1.30;99762;;;;571261;248;24102;-86
2023/12/14 04:24:09;;;;;;;3.27;1.83;;;2.30;99.90;1.30;99770;;;;570968;248;24088;-87
2023/12/14 04:26:36;;;;;;;3.00;2.50;;;2.40;99.90;1.30;99774;;;;570695;248;24109;-87
2023/12/14 04:29:08;;;;;;;3.47;2.07;;;2.30;99.90;1.40;99773;;;;570511;248;24121;-87
2023/12/14 04:31:36;;;;;;;4.70;1.77;;;2.40;99.90;1.40;99770;;;;570330;248;24126;-87
2023/12/14 04:34:14;;;;;;;;;;;;;;;;;;;;;
2023/12/14 04:36:32;;;;;;;5.03;2.47;;;2.40;99.90;1.40;99766;;;;566510;248;25199;-87
2023/12/14 04:39:00;;;;;;;4.10;1.50;;;2.50;99.90;1.50;99775;;;;570478;248;24090;-87
2023/12/14 04:41:28;;;;;;;5.30;2.87;;;2.50;99.90;1.50;99772;;;;570678;248;24147;-87
2023/12/14 04:43:59;;;;;;;2.00;1.63;;;2.50;99.90;1.50;99778;;;;583472;242;24143;-87
2023/12/14 04:46:27;;;;;;;3.63;1.70;;;2.50;99.90;1.50;99786;;;;582075;243;24131;-87
2023/12/14 04:48:59;;;;;;;4.57;1.37;;;2.50;99.90;1.50;99780;;;;568962;247;24130;-87
2023/12/14 04:51:24;;;;;;;2.37;1.60;;;2.50;99.90;1.50;99785;;;;581774;243;24250;-87
2023/12/14 04:53:52;;;;;;;2.13;1.47;;;2.60;99.90;1.60;99781;;;;568954;247;24128;-87
2023/12/14 04:56:20;;;;;;;2.03;1.83;;;2.60;99.90;1.60;99782;;;;582045;243;24078;-88
2023/12/14 04:58:48;;;;;;;1.27;1.17;;;2.60;99.90;1.60;99794;;;;568810;247;24129;-87
2023/12/14 05:01:16;;;;;;;2.50;1.87;;;2.60;99.90;1.60;99796;;;;581450;243;24174;-87
2023/12/14 05:03:44;;;;;;;4.10;1.90;;;2.60;99.90;1.60;99799;;;;568495;247;24106;-87
2023/12/14 05:06:12;;;;;;;2.30;1.17;;;2.60;99.90;1.70;99808;;;;579575;242;24061;-87
2023/12/14 05:08:41;;;;;;;3.00;1.73;;;2.70;99.90;1.70;99797;;;;580215;243;24188;-87
2023/12/14 05:11:09;;;;;;;1.60;1.13;;;2.70;99.90;1.70;99813;;;;581619;243;24055;-88
2023/12/14 05:13:38;;;;;;;3.40;1.93;;;2.70;99.90;1.70;99817;;;;568491;247;25183;-89
2023/12/14 05:16:09;;;;;;;1.23;1.13;;;2.70;99.90;1.70;99823;;;;581504;243;24096;-87
2023/12/14 05:18:35;;;;;;;1.33;1.23;;;2.70;99.90;1.70;99830;;;;568441;247;24139;-88
2023/12/14 05:21:05;;;;;;;2.00;1.40;;;2.70;99.90;1.70;99829;;;;581997;243;24201;-87
2023/12/14 05:23:31;;;;;;;2.03;1.60;;;2.70;99.90;1.80;99832;;;;580965;246;24100;-88
2023/12/14 05:25:59;;;;;;;2.00;1.57;;;2.70;99.90;1.80;99837;;;;581813;243;24107;-87
2023/12/14 05:28:27;;;;;;;3.97;1.60;;;2.70;99.90;1.80;99831;;;;568703;247;24096;-87
2023/12/14 05:30:55;;;;;;;2.87;1.77;;;2.80;99.90;1.70;99839;;;;582441;242;24071;-87
2023/12/14 05:33:23;;;;;;;4.10;1.90;;;2.70;99.90;1.70;99843;;;;582133;246;24165;-87
2023/12/14 05:35:51;;;;;;;1.03;0.87;;;2.70;99.90;1.80;99837;;;;582507;243;24079;-87
2023/12/14 05:38:19;;;;;;;0.90;0.87;;;2.70;99.90;1.80;99835;;;;569086;247;24094;-87
2023/12/14 05:40:47;;;;;;;3.00;1.87;;;2.80;99.90;1.80;99842;;;;582118;243;24240;-87
2023/12/14 05:43:18;;;;;;;2.27;1.57;;;2.80;99.90;1.80;99840;;;;572053;247;24096;-86
2023/12/14 05:45:46;;;;;;;3.97;2.30;;;2.80;99.90;1.80;99853;;;;581706;243;24088;-87
2023/12/14 05:48:12;;;;;;;1.70;1.10;;;2.80;99.90;1.80;99844;;;;579504;248;24122;-88
2023/12/14 05:50:40;;;;;;;1.60;1.23;;;2.80;99.90;1.80;99844;;;;573884;248;24087;-88
2023/12/14 05:53:08;;;;;;;2.93;2.33;;;2.80;99.90;1.80;99839;;;;570314;248;24081;-88
2023/12/14 05:55:36;;;;;;;3.60;1.83;;;2.80;99.90;1.90;99847;;;;570549;248;24120;-85
2023/12/14 05:58:04;;;;;;;3.80;1.97;;;2.80;99.90;1.90;99852;;;;570818;248;24126;-87
2023/12/14 06:00:34;;;;;;;1.13;0.90;;;2.80;99.90;1.90;99854;;;;567365;248;24094;-84
2023/12/14 06:03:03;;;;;;;0.83;0.83;;;2.90;99.90;1.90;99863;;;;570638;248;25162;-86
2023/12/14 06:05:32;;;;;;;3.40;1.40;;;2.80;99.90;1.90;99864;;;;570676;248;24129;-86
2023/12/14 06:07:56;;;;;;;1.33;1.00;;;2.80;99.90;1.90;99852;;;;570003;248;24082;-86
2023/12/14 06:10:24;;;;;;;1.30;0.83;;;2.90;99.90;1.90;99858;;;;570137;248;24141;-87
2023/12/14 06:12:54;;;;;;;2.10;1.30;;;2.90;99.90;1.90;99874;;;;569943;248;24117;-87
2023/12/14 06:15:20;;;;;;;4.13;1.90;;;2.90;99.90;1.90;99870;;;;578458;248;24124;-86
2023/12/14 06:17:48;;;;;;;4.23;1.60;;;2.90;99.90;2.00;99870;;;;569847;248;24158;-88
2023/12/14 06:20:16;;;;;;;2.47;1.60;;;2.90;99.90;2.00;99872;;;;570057;248;24103;-87
2023/12/14 06:22:44;;;;;;;2.23;1.77;;;2.90;99.90;2.00;99876;;;;570098;248;24211;-86
2023/12/14 06:25:12;;;;;;;1.90;1.30;;;2.90;99.90;2.00;99877;;;;570050;248;24113;-86
2023/12/14 06:27:43;;;;;;;1.27;1.17;;;2.90;99.90;2.00;99878;;;;569992;248;24082;-86
2023/12/14 06:30:11;;;;;;;0.87;0.87;;;2.90;99.90;2.00;99882;;;;566729;248;24136;-87
2023/12/14 06:32:39;;;;;;;3.70;1.97;;;2.90;99.90;2.00;99880;;;;570200;248;24119;-86
2023/12/14 06:35:08;;;;;;;3.07;2.00;;;2.90;99.90;1.90;99891;;;;569570;248;24126;-87
2023/12/14 06:37:32;;;;;;;2.70;1.53;;;2.90;99.90;1.90;99896;;;;569765;248;24163;-86
2023/12/14 06:40:03;;;;;;;1.60;1.20;;;2.90;99.90;1.90;99904;;;;570294;248;24110;-86
2023/12/14 06:42:31;;;;;;;1.33;0.90;;;2.90;99.90;1.90;99904;;;;570127;247;24177;-88
2023/12/14 06:45:00;;;;;;;2.93;1.57;;;2.90;99.90;1.90;99904;;;;570422;248;24108;-88
2023/12/14 06:47:25;;;;;;;1.33;1.23;;;2.90;99.90;1.90;99904;;;;570527;248;24115;-87
2023/12/14 06:49:53;;;;;;;1.33;1.33;;;2.90;99.90;1.90;99912;;;;570786;248;24164;-86
2023/12/14 06:52:21;;;;;;;1.53;1.20;;;2.90;99.90;1.90;99909;;;;570599;248;24098;-87
2023/12/14 06:54:49;;;;;;;1.67;1.57;;;2.90;99.90;1.90;99916;;;;570794;248;24126;-87
2023/12/14 06:57:17;;;;;;;2.30;1.10;;;2.90;99.90;1.90;99919;;;;570931;248;24157;-87
2023/12/14 06:59:45;;;;;;;1.70;1.57;;;2.90;99.90;2.00;99920;;;;570636;248;24102;-87
2023/12/14 07:02:13;;;;;;;4.10;2.23;;;2.90;99.90;2.00;99917;;;;570417;248;24112;-87
2023/12/14 07:04:42;;;;;;;1.83;1.73;;;2.90;99.90;2.00;99913;;;;570099;248;24172;-87
2023/12/14 07:07:10;;;;;;;2.30;1.83;;;3.00;99.90;2.00;99922;;;;570444;248;24098;-86
2023/12/14 07:09:38;;;;;;;0.97;0.73;;;3.00;99.90;2.00;99932;;;;570262;248;24118;-86
2023/12/14 07:12:11;;;;;;;5.10;1.53;;;3.00;99.90;2.00;99923;;;;570148;248;24111;-87
2023/12/14 07:14:35;;;;;;;4.53;2.50;;;3.00;99.90;2.00;99930;;;;567414;248;24051;-89
2023/12/14 07:17:06;;;;;;;2.00;1.90;;;2.90;99.90;2.00;99937;;;;570677;248;24106;-87
2023/12/14 07:19:31;;;;;;;2.77;1.83;;;2.90;99.90;2.00;99947;;;;569949;248;25176;-88
2023/12/14 07:22:02;;;;;;;2.17;1.97;;;2.90;99.90;1.90;99959;;;;569918;248;24134;-87
2023/12/14 07:24:27;;;;;;;2.20;2.00;;;2.90;99.90;2.00;99949;;;;569829;248;24095;-88
2023/12/14 07:26:59;;;;;;;4.37;2.70;;;3.00;99.90;2.00;99949;;;;570265;248;24097;-87
2023/12/14 07:29:23;;;;;;;4.93;1.83;;;5.90;99.90;2.10;99960;;;;570011;248;24120;-88
2023/12/14 07:31:51;;;;;;;5.13;2.63;;;3.00;99.90;2.10;99962;;;;570034;248;24135;-87
2023/12/14 07:34:20;;;;;;;4.53;1.90;;;3.10;99.90;2.10;99964;;;;569902;248;24123;-88
2023/12/14 07:36:50;;;;;;;3.93;2.70;;;3.10;99.90;2.20;99970;;;;569573;248;24107;-87
2023/12/14 07:39:15;;;;;;;1.90;1.63;;;3.10;99.90;2.20;99982;;;;569387;248;24098;-87
2023/12/14 07:41:43;;;;;;;2.00;1.13;;;3.20;99.90;2.20;99981;;;;569533;248;24087;-88
2023/12/14 07:44:11;;;;;;;9.70;3.23;;;3.20;99.90;2.30;99987;;;;570120;248;24102;-87
2023/12/14 07:46:42;;;;;;;6.37;3.08;;;3.30;99.90;2.30;99988;;;;564783;248;35384;-88
2023/12/14 07:49:11;;;;;;;3.53;2.33;;;3.30;99.90;2.30;100002;;;;569720;248;24134;-87
2023/12/14 07:51:35;;;;;;;2.80;2.07;;;3.30;99.90;2.30;99997;;;;572521;248;24097;-88
2023/12/14 07:54:04;;;;;;;2.97;1.73;;;3.30;99.90;2.40;100000;;;;567084;247;24107;-88
2023/12/14 07:56:34;;;;;;;7.07;2.10;;;3.40;99.90;2.40;100021;;;;567942;248;24125;-88
2023/12/14 07:58:59;;;;;;;2.93;2.13;;;3.40;99.90;2.50;100003;;;;571265;246;24093;-86
2023/12/14 08:01:28;;;;;;;9.23;3.00;;;3.50;99.90;2.50;100014;;;;571014;248;24097;-87
2023/12/14 08:03:57;;;;;;;2.73;1.20;;;3.50;99.90;2.50;100007;;;;570916;248;24134;-88
2023/12/14 08:06:24;;;;;;;2.73;1.50;;;3.50;99.90;2.50;100010;;;;570539;248;24227;-88
2023/12/14 08:08:52;;;;;;;2.57;1.50;;;3.50;99.90;2.60;100020;;;;570727;248;24199;-88
2023/12/14 08:11:20;;;;;;;5.63;2.17;;;3.50;99.90;2.60;100013;;;;567520;248;24138;-87
2023/12/14 08:13:48;;;;;;;2.60;1.80;;;3.50;99.90;2.60;100021;;;;570355;248;24087;-88
2023/12/14 08:16:17;;;;;;;4.20;1.73;;;3.50;99.90;2.60;100024;;;;570078;248;24111;-89
2023/12/14 08:18:48;;;;;;;2.07;1.27;;;3.60;99.90;2.70;100027;;;;569970;248;24099;-88
2023/12/14 08:21:15;;;;;;;1.70;1.50;;;3.60;99.90;2.70;100023;;;;570651;247;24123;-87
2023/12/14 08:23:43;;;;;;;10.23;3.00;;;3.70;99.90;2.70;100024;;;;570642;248;24136;-87
2023/12/14 08:26:12;;;;;;;0.97;0.97;;;3.80;99.90;2.80;100025;;;;570555;248;24179;-88
2023/12/14 08:28:42;;;;;;;1.20;1.10;;;3.70;99.90;2.80;100025;;;;570344;248;24165;-87
2023/12/14 08:31:10;;;;;;;2.40;1.70;;;3.80;99.90;2.80;100034;;;;572592;248;24204;-88
2023/12/14 08:33:35;;;;;;;4.87;1.77;;;3.80;99.90;2.80;100033;;;;570084;248;24094;-88
2023/12/14 08:36:05;;;;;;;1.70;1.37;;;3.80;99.90;2.80;100042;;;;570689;248;24167;-87
2023/12/14 08:38:30;;;;;;;3.17;1.87;;;3.80;99.90;2.90;100038;;;;569897;248;24137;-89
2023/12/14 08:41:00;;;;;;;4.07;2.10;;;3.80;99.90;2.90;100045;;;;569762;248;24099;-88
2023/12/14 08:43:27;;;;;;;5.73;2.17;;;3.80;99.90;2.90;100040;;;;569789;248;24115;-87
2023/12/14 08:45:58;;;;;;;2.33;1.60;;;3.80;99.90;2.80;100047;;;;569580;248;24095;-87
2023/12/14 08:48:23;;;;;;;6.23;2.17;;;3.70;99.90;2.70;100049;;;;569340;248;24106;-87
2023/12/14 08:50:51;;;;;;;4.43;2.23;;;3.60;99.90;2.60;100046;;;;570359;248;24197;-87
2023/12/14 08:53:19;;;;;;;5.43;2.10;;;3.60;99.90;2.60;100049;;;;573325;248;24101;-86
2023/12/14 08:55:47;;;;;;;4.70;2.07;;;3.50;99.90;2.50;100053;;;;570493;248;24142;-86
2023/12/14 08:58:15;;;;;;;2.50;2.30;;;3.40;99.90;2.40;100066;;;;570593;248;24153;-87
2023/12/14 09:00:43;;;;;;;4.57;1.90;;;3.40;99.90;2.40;100062;;;;570356;248;24141;-89
2023/12/14 09:03:11;;;;;;;10.57;2.03;;;3.40;99.90;2.30;100073;;;;570472;248;24125;-87
2023/12/14 09:05:41;;;;;;;2.30;1.63;;;3.30;99.90;2.30;100063;;;;571140;247;24148;-86
2023/12/14 09:08:10;;;;;;;1.67;1.57;;;3.20;99.90;2.30;100073;;;;571304;248;24112;-87
2023/12/14 09:10:38;;;;;;;3.97;1.80;;;3.20;99.90;2.30;100078;;;;570760;248;24163;-87
2023/12/14 09:13:06;;;;;;;2.73;1.33;;;3.20;99.90;2.20;100068;;;;570828;247;24093;-87
2023/12/14 09:15:36;;;;;;;1.83;1.70;;;3.20;99.90;2.30;100067;;;;570049;248;24097;-87
2023/12/14 09:18:01;;;;;;;4.20;2.20;;;3.20;99.90;2.30;100073;;;;566048;248;24182;-88
2023/12/14 09:20:29;;;;;;;3.93;2.30;;;3.30;99.90;2.30;100082;;;;570050;248;24087;-87
2023/12/14 09:22:57;;;;;;;4.13;2.50;;;3.30;99.90;2.40;100074;;;;570406;248;24105;-88
2023/12/14 09:25:25;;;;;;;6.30;2.23;;;3.40;99.90;2.60;100080;;;;570184;248;24120;-87
2023/12/14 09:27:53;;;;;;;1.47;1.13;;;3.60;99.90;2.70;100076;;;;570088;248;24101;-86
2023/12/14 09:30:22;;;;;;;1.63;1.37;;;3.80;99.90;2.90;100086;;;;570046;248;24168;-87
2023/12/14 09:32:50;;;;;;;2.27;1.13;;;5.10;99.90;3.00;100077;;;;570123;248;24129;-88
2023/12/14 09:35:18;;;;;;;0.97;0.97;;;4.00;99.90;3.10;100081;;;;570043;248;24113;-87
2023/12/14 09:37:45;;;;;;;1.10;0.87;;;4.10;99.90;3.30;100088;;;;570010;248;24123;-86
2023/12/14 09:40:14;;;;;;;0.97;0.97;;;4.30;99.90;3.40;100084;;;;569639;248;24161;-86
2023/12/14 09:42:41;;;;;;;0.80;0.80;;;4.30;99.90;3.40;100087;;;;569385;248;24151;-86
2023/12/14 09:45:12;;;;;;;3.13;0.80;;;4.40;99.90;3.50;100094;;;;569450;248;24120;-85
2023/12/14 09:47:43;;;;;;;1.10;0.90;;;4.40;99.90;3.50;100089;;;;578535;248;24125;-87
2023/12/14 09:50:08;;;;;;;0.60;0.60;;;4.40;99.90;3.60;100096;;;;572119;248;24155;-87
2023/12/14 09:52:37;;;;;;;1.30;0.87;;;4.60;99.90;3.70;100099;;;;569472;248;24088;-86
2023/12/14 09:55:09;;;;;;;3.43;0.90;;;4.70;99.90;3.80;100098;;;;569870;248;24117;-86
2023/12/14 09:57:34;;;;;;;1.20;0.97;;;4.70;99.90;3.80;100111;;;;569741;248;24123;-86
2023/12/14 10:00:04;;;;;;;1.73;1.10;;;4.70;99.90;3.80;100121;;;;569842;248;24181;-87
2023/12/14 10:02:32;;;;;;;3.50;1.70;;;4.80;99.90;3.90;100121;;;;569288;248;24117;-87
2023/12/14 10:05:00;;;;;;;1.40;1.10;;;4.80;99.90;3.90;100113;;;;569414;248;24143;-87
2023/12/14 10:07:25;;;;;;;2.87;1.00;;;4.90;99.90;4.00;100125;;;;569779;246;24149;-88
2023/12/14 10:09:53;;;;;;;1.33;1.20;;;4.90;99.90;4.00;100130;;;;569574;248;24113;-87
2023/12/14 10:12:24;;;;;;;1.73;1.23;;;4.90;99.90;4.00;100127;;;;569930;248;24146;-88
2023/12/14 10:14:49;;;;;;;3.17;1.60;;;5.00;99.90;4.00;100131;;;;569757;248;24114;-87
2023/12/14 10:17:21;;;;;;;2.33;0.87;;;5.00;99.90;4.00;100136;;;;571935;247;24148;-87
2023/12/14 10:19:51;;;;;;;5.53;1.20;;;5.00;99.90;4.10;100140;;;;570983;248;24102;-88
2023/12/14 10:22:17;;;;;;;4.07;2.73;;;5.10;99.90;4.20;100140;;;;573414;248;24091;-88
2023/12/14 10:24:47;;;;;;;2.93;1.70;;;5.20;99.90;4.30;100141;;;;578787;248;24142;-87
2023/12/14 10:27:12;;;;;;;3.53;1.73;;;5.30;99.90;4.40;100140;;;;572553;248;24135;-87
2023/12/14 10:29:44;;;;;;;2.67;1.50;;;5.40;99.90;4.50;100147;;;;570204;248;24111;-86
2023/12/14 10:32:11;;;;;;;6.13;1.20;;;5.50;99.90;4.50;100140;;;;569771;248;24112;-88
2023/12/14 10:34:36;;;;;;;2.63;1.43;;;5.50;99.90;4.60;100153;;;;572925;248;24206;-87
2023/12/14 10:37:04;;;;;;;1.60;1.07;;;5.50;99.90;4.50;100158;;;;570034;248;24090;-89
2023/12/14 10:39:32;;;;;;;1.87;1.33;;;5.50;99.90;4.50;100163;;;;572599;248;24144;-88
2023/12/14 10:42:00;;;;;;;5.37;2.97;;;5.50;99.90;4.50;100163;;;;569730;248;24100;-87
2023/12/14 10:44:30;;;;;;;1.43;1.33;;;5.50;99.90;4.50;100169;;;;572808;248;24123;-86
2023/12/14 10:46:59;;;;;;;1.20;1.03;;;5.40;99.90;4.50;100163;;;;570171;248;24129;-87
2023/12/14 10:49:27;;;;;;;2.83;1.60;;;5.40;99.90;4.50;100160;;;;566389;248;24119;-87
2023/12/14 10:51:55;;;;;;;1.67;1.40;;;5.40;99.90;4.40;100165;;;;569809;248;24087;-89
2023/12/14 10:54:23;;;;;;;2.43;1.43;;;5.40;99.90;4.40;100167;;;;578568;248;24179;-88
2023/12/14 10:56:51;;;;;;;2.80;1.83;;;5.40;99.90;4.40;100169;;;;577864;248;24123;-87
2023/12/14 10:59:23;;;;;;;2.50;1.77;;;5.30;99.90;4.30;100168;;;;569748;248;24087;-86
2023/12/14 11:01:47;;;;;;;1.43;1.27;;;5.30;99.90;4.40;100168;;;;572419;248;24106;-86
2023/12/14 11:04:16;;;;;;;2.30;1.40;;;5.40;99.90;4.40;100164;;;;578359;248;24096;-86
2023/12/14 11:06:47;;;;;;;2.93;2.33;;;5.40;99.90;4.40;100165;;;;566171;248;24132;-86
2023/12/14 11:09:14;;;;;;;1.67;1.37;;;5.40;99.90;4.40;100177;;;;569930;248;24099;-87
2023/12/14 11:11:59;;;;;;;2.60;1.60;;;5.40;99.90;4.40;100172;;;;569956;248;24102;-86
2023/12/14 11:14:25;;;;;;;2.00;1.63;;;5.30;99.90;4.30;100187;;;;569491;248;24106;-87
2023/12/14 11:16:53;;;;;;;2.47;1.43;;;5.30;99.90;4.30;100193;;;;569877;248;24153;-86
2023/12/14 11:19:28;;;;;;;4.93;2.57;;;5.10;99.90;4.10;100186;;;;572341;248;24100;-86
2023/12/14 11:21:55;;;;;;;4.53;2.30;;;5.00;99.90;4.10;100183;;;;569602;248;24127;-86
2023/12/14 11:24:26;;;;;;;5.77;2.37;;;4.90;99.90;3.90;100187;;;;569463;248;24099;-86
2023/12/14 11:26:55;;;;;;;1.50;1.40;;;4.90;99.90;3.70;100183;;;;578445;248;24120;-86
2023/12/14 11:29:22;;;;;;;1.97;1.47;;;4.60;99.90;3.60;100188;;;;570643;247;24093;-86
2023/12/14 11:31:48;;;;;;;0.90;0.90;;;4.40;99.90;3.50;100188;;;;570843;248;24271;-86
2023/12/14 11:34:19;;;;;;;2.57;2.07;;;4.40;99.90;3.40;100193;;;;570815;248;24140;-86